Powers Lake, ND (58773)

8:30 AM CDT on June 30, 2015 (GMT -0500)
Tioga Municipal Airport | | Change Station
CLOSE
Current Station
Airport
Location: Tioga Municipal Airport,
Elevation: 2270 ft
Nearby Weather Stations
Active Advisory: Special Statement

Elev 2270 ft 48.38 °N, 102.90 °W | Updated 35 minutes ago

Overcast
Overcast
64 °F
Feels Like 64 °F
N
0
Wind Variable Wind from North

Today
High -- | Low -- °F
--% Chance of Precip.
Yesterday
High -- | Low -- °F
Precip. -- in
5:51 AM 9:56 PM
Waxing Gibbous, 97% visible
Pressure 30.01 in
Visibility 2.0 miles
Clouds Overcast 10000 ft
Dew Point 64 °F
Humidity 100%
Rainfall 0.00 in
Snow Depth Not available.
UV 0 out of 12
Pollen 5.00 out of 12
Air Quality Not available.
Flu Activity Sporadic
METAR KD60 301255Z AUTO 00000KT 2SM BR OVC100 18/18 A3001 RMK AO2

More Conditions Fewer Conditions

Pressure 30.01 in
Visibility 2.0 miles
Clouds Overcast 10000 ft
Dew Point 64 °F
Humidity 100%
Rainfall 0.00 in
Snow Depth Not available.
UV 0 out of 12
Pollen 5.00 out of 12
Air Quality Not available.
Flu Activity Sporadic
METAR KD60 301255Z AUTO 00000KT 2SM BR OVC100 18/18 A3001 RMK AO2

More Conditions Fewer Conditions

10-Day Weather Forecast

×

Almanac

Astronomy

Jun. 30, 2015 Rise Set
Actual Time
Civil Twilight
Nautical Twilight
Astronomical Twilight
Moon
Length of Visible Light
Length of Day
Tomorrow will be .
, % of the Moon is Illuminated

Today's Extremes

State Highs State Lows

Community

WunderPhotos

Upload Photos

1,833,994 photos uploaded!

WunderBlogs® & News

Nearby

Air Quality

  Air Quality AQ Index Pollutant
Not available.

Snow Depth

Station Depth Elevation

Earthquake Activity

City Distance Mag. Time & Date
Minimum magnitude displayed is 2.5.

Coastal Water Temperatures

Place Temperature

Stations

Nearby Weather Stations

Station Location Temp. Windchill Dew Point Humidity Wind Precip. Elev Updated Type
                   
Special Statement
Statement as of 4:11 AM CDT on June 30, 2015

... Smoke and haze will continue across northwest North Dakota
through Tuesday morning...

Smoke from central Canadian fires continues to impact northwest
North Dakota. Expect visibilities to mainly range between 1 and 2
miles through Tuesday morning. It would be best to remain indoors
if possible... since the extent of any adverse health effects
remains unknown.

Showers and thunderstorms are expected today... which should lessen
the effects of the smoke and improve visibilities.


KS/NH

402 am CDT Tue Jun 30 2015

... Smoke and haze will continue across northwest North Dakota
through Tuesday morning...

Smoke from central Canadian fires continues to impact northwest
North Dakota. Expect visibilities to mainly range between 1 and 2
miles through Tuesday morning. It would be best to remain indoors
if possible... since the extent of any adverse health effects
remains unknown.

Showers and thunderstorms are expected today... which should lessen
the effects of the smoke and improve visibilities.


KS/NH